Battle Creek, Michigan
Current Conditions -  °F | °C
As of 4:22 AM on Sunday 21 Dec 2014 (Local Time) from KBTL Reporting Station
Haze Haze  
Wind Chill: 25°   Ceiling: 2600
Heat Index: 30°   Visibility: 4mi
Dew Point: 27°   Wind: 5mph
Humidity: 88%   Direction: 190°S
Pressure: 30.26"   Gusts: NA
Location:  42.32°N, 85.18°W
Report Text: KBTL 210922Z 19004KT 4SM BR BKN026 OVC060 M01/M03 A3026 RMK AO2 T10111028
Loading
Personal Weather Stations






























Interactive Weather Map New forecast layout! Learn more

10-Day Weather Forecast

Advertisements
Track Severe Weather on mobile